Time;durP1;ratioP1;P1;durP2;ratioP2;P2;SDS_P1;SDS_P2;PMS_P1;PMS_P2;Temp;Humidity;BMP_temperature;BMP_pressure;BME280_temperature;BME280_humidity;BME280_pressure;Samples;Min_cycle;Max_cycle;Signal;HPM_P1;HPM_P2
2024/01/21 00:01:23;;;;;;;9.68;4.68;;;0.70;99.90;;;;;;5111054;28;20388;-74
2024/01/21 00:03:49;;;;;;;12.32;4.53;;;0.80;99.90;;;;;;5076783;28;20051;-77
2024/01/21 00:06:15;;;;;;;11.05;4.10;;;0.80;99.90;;;;;;5093610;28;20055;-76
2024/01/21 00:08:41;;;;;;;13.15;4.82;;;0.80;99.90;;;;;;5111991;28;20059;-76
2024/01/21 00:11:07;;;;;;;15.15;5.82;;;0.80;99.90;;;;;;5111760;28;20172;-74
2024/01/21 00:13:33;;;;;;;12.88;5.20;;;0.80;99.90;;;;;;5111706;28;20054;-75
2024/01/21 00:15:59;;;;;;;11.13;5.32;;;0.80;99.90;;;;;;5111864;28;20043;-74
2024/01/21 00:18:25;;;;;;;11.93;4.97;;;0.80;99.90;;;;;;5093565;28;20143;-73
2024/01/21 00:20:51;;;;;;;11.73;5.03;;;0.80;99.90;;;;;;5111677;28;20047;-77
2024/01/21 00:23:17;;;;;;;9.27;4.50;;;0.80;99.90;;;;;;5111566;28;20097;-74
2024/01/21 00:25:42;;;;;;;10.32;5.60;;;0.80;99.90;;;;;;5095655;28;20147;-72
2024/01/21 00:28:08;;;;;;;12.32;4.82;;;0.80;99.90;;;;;;5092983;28;20501;-81
2024/01/21 00:30:34;;;;;;;14.63;5.25;;;0.70;99.90;;;;;;5111416;28;20429;-76
2024/01/21 00:32:59;;;;;;;9.68;4.85;;;0.80;99.90;;;;;;5093222;28;20068;-74
2024/01/21 00:35:25;;;;;;;12.80;6.03;;;0.80;99.90;;;;;;5111655;28;20055;-74
2024/01/21 00:37:51;;;;;;;15.68;6.88;;;0.70;99.90;;;;;;5111537;28;20043;-76
2024/01/21 00:40:17;;;;;;;14.85;5.65;;;0.70;99.90;;;;;;5111230;28;20495;-77
2024/01/21 00:42:43;;;;;;;12.80;4.90;;;0.70;99.90;;;;;;5111994;28;20380;-81
2024/01/21 00:45:09;;;;;;;11.30;5.05;;;0.70;99.90;;;;;;5112437;28;20172;-73
2024/01/21 00:47:34;;;;;;;13.73;6.43;;;0.60;99.90;;;;;;5093307;28;20101;-75
2024/01/21 00:50:00;;;;;;;11.82;5.45;;;0.60;99.90;;;;;;5111413;28;20458;-77
2024/01/21 00:52:26;;;;;;;12.48;5.20;;;0.60;99.90;;;;;;5111214;28;20323;-78
2024/01/21 00:54:53;;;;;;;10.50;5.13;;;0.60;99.90;;;;;;5112177;28;20043;-75
2024/01/21 00:57:19;;;;;;;12.10;5.88;;;0.60;99.90;;;;;;5111762;28;20059;-81
2024/01/21 00:59:45;;;;;;;15.02;5.78;;;0.60;99.90;;;;;;5093253;28;20070;-81
2024/01/21 01:02:10;;;;;;;12.80;5.78;;;0.60;99.90;;;;;;5110926;28;20510;-81
2024/01/21 01:04:36;;;;;;;13.65;6.82;;;0.60;99.90;;;;;;5093289;28;20056;-76
2024/01/21 01:07:02;;;;;;;12.68;5.60;;;0.60;99.90;;;;;;5093345;28;20406;-75
2024/01/21 01:09:28;;;;;;;13.07;6.68;;;0.60;99.90;;;;;;5111490;28;20056;-77
2024/01/21 01:11:53;;;;;;;12.52;5.97;;;0.60;99.90;;;;;;5111249;28;20519;-74
2024/01/21 01:14:20;;;;;;;13.88;5.63;;;0.60;99.90;;;;;;5093050;28;20108;-73
2024/01/21 01:16:45;;;;;;;12.77;5.88;;;0.60;99.90;;;;;;5111626;28;20391;-76
2024/01/21 01:19:11;;;;;;;12.98;6.40;;;0.70;99.90;;;;;;5111248;28;20055;-77
2024/01/21 01:21:37;;;;;;;11.82;5.38;;;0.70;99.90;;;;;;5111673;28;20411;-79
2024/01/21 01:24:03;;;;;;;16.33;5.90;;;0.70;99.90;;;;;;5112255;28;20052;-75
2024/01/21 01:26:28;;;;;;;14.48;6.40;;;0.80;99.90;;;;;;5109557;28;20131;-74
2024/01/21 01:28:54;;;;;;;10.48;5.10;;;0.80;99.90;;;;;;5111358;28;20614;-78
2024/01/21 01:31:20;;;;;;;14.80;6.00;;;0.80;99.90;;;;;;5110789;28;20048;-83
2024/01/21 01:33:46;;;;;;;11.32;5.50;;;0.70;99.90;;;;;;5093160;28;20051;-74
2024/01/21 01:36:12;;;;;;;12.23;5.25;;;0.70;99.90;;;;;;5111444;28;20468;-74
2024/01/21 01:38:38;;;;;;;11.52;5.32;;;0.70;99.90;;;;;;5111137;28;20143;-73
2024/01/21 01:41:04;;;;;;;10.27;5.65;;;0.70;99.90;;;;;;5111066;28;20048;-79
2024/01/21 01:43:30;;;;;;;12.15;5.53;;;0.70;99.90;;;;;;5082238;28;20464;-78
2024/01/21 01:45:59;;;;;;;10.02;6.00;;;0.70;99.90;;;;;;5115153;28;20051;-76
2024/01/21 01:48:26;;;;;;;10.32;5.20;;;0.70;99.90;;;;;;5114942;28;20043;-76
2024/01/21 01:50:52;;;;;;;11.60;5.35;;;0.70;99.90;;;;;;5115223;28;20063;-78
2024/01/21 01:53:18;;;;;;;11.60;5.18;;;0.70;99.90;;;;;;5096746;28;20208;-75
2024/01/21 01:55:44;;;;;;;10.48;4.57;;;0.70;99.90;;;;;;5114894;28;20449;-78
2024/01/21 01:58:14;;;;;;;11.25;4.93;;;0.80;99.90;;;;;;5114817;28;20048;-79
2024/01/21 02:00:40;;;;;;;14.18;6.75;;;0.80;99.90;;;;;;5114881;28;20101;-82
2024/01/21 02:03:07;;;;;;;13.85;5.13;;;0.80;99.90;;;;;;5100807;28;20051;-77
2024/01/21 02:05:34;;;;;;;10.90;4.93;;;0.90;99.90;;;;;;5115442;28;20055;-80
2024/01/21 02:07:59;;;;;;;12.25;5.03;;;0.90;99.90;;;;;;5115410;28;20043;-73
2024/01/21 02:10:28;;;;;;;11.55;4.82;;;0.90;99.90;;;;;;5118757;28;20104;-73
2024/01/21 02:12:53;;;;;;;9.68;4.22;;;0.90;99.90;;;;;;5117517;28;20055;-75
2024/01/21 02:15:19;;;;;;;8.80;4.13;;;0.90;99.90;;;;;;5114380;28;20035;-74
2024/01/21 02:17:45;;;;;;;12.07;4.38;;;1.00;99.90;;;;;;5114535;28;20096;-75
2024/01/21 02:20:11;;;;;;;10.50;5.47;;;1.00;99.90;;;;;;5115160;28;20539;-82
2024/01/21 02:22:41;;;;;;;12.18;4.70;;;1.00;99.90;;;;;;5114880;28;20164;-76
2024/01/21 02:25:08;;;;;;;10.43;4.38;;;1.00;99.90;;;;;;5115438;28;20086;-75
2024/01/21 02:27:34;;;;;;;10.90;4.28;;;1.00;99.90;;;;;;5115793;28;20054;-79
2024/01/21 02:30:00;;;;;;;7.93;4.05;;;1.00;99.90;;;;;;5096501;28;20077;-80
2024/01/21 02:32:26;;;;;;;9.77;4.43;;;1.00;99.90;;;;;;5114345;28;20051;-80
2024/01/21 02:34:53;;;;;;;8.18;3.90;;;1.00;99.90;;;;;;5099407;28;20059;-74
2024/01/21 02:37:19;;;;;;;9.45;4.35;;;1.00;99.90;;;;;;5114435;28;20047;-80
2024/01/21 02:39:44;;;;;;;11.15;5.40;;;1.00;99.90;;;;;;5092613;28;20051;-80
2024/01/21 02:42:11;;;;;;;11.40;4.53;;;1.00;99.90;;;;;;5111156;28;20044;-78
2024/01/21 02:44:37;;;;;;;9.07;4.05;;;1.00;99.90;;;;;;5108916;28;20056;-76
2024/01/21 02:47:03;;;;;;;10.73;5.38;;;1.00;99.90;;;;;;5093598;28;20050;-76
2024/01/21 02:49:29;;;;;;;8.88;4.22;;;1.00;99.90;;;;;;5096105;28;20056;-80
2024/01/21 02:51:56;;;;;;;11.05;4.40;;;1.10;99.90;;;;;;5103803;28;20048;-78
2024/01/21 02:54:22;;;;;;;7.75;3.75;;;1.10;99.90;;;;;;5102205;28;20241;-76
2024/01/21 02:56:48;;;;;;;10.15;4.57;;;1.10;99.90;;;;;;5103751;28;20052;-77
2024/01/21 02:59:13;;;;;;;11.93;4.18;;;1.10;99.90;;;;;;5085104;28;20068;-78
2024/01/21 03:01:39;;;;;;;11.88;4.45;;;1.10;99.90;;;;;;5097707;28;20041;-77
2024/01/21 03:04:05;;;;;;;9.45;4.32;;;1.10;99.90;;;;;;5102455;28;20082;-72
2024/01/21 03:06:31;;;;;;;8.55;3.88;;;1.10;99.90;;;;;;5104031;28;20088;-78
2024/01/21 03:08:56;;;;;;;10.77;4.60;;;1.10;99.90;;;;;;5101595;28;20052;-78
2024/01/21 03:11:23;;;;;;;11.85;5.07;;;1.10;99.90;;;;;;5100310;28;20044;-77
2024/01/21 03:13:49;;;;;;;12.90;4.97;;;1.10;99.90;;;;;;5101690;28;20044;-77
2024/01/21 03:16:15;;;;;;;10.13;4.60;;;1.10;99.90;;;;;;5103701;28;20052;-75
2024/01/21 03:18:40;;;;;;;8.10;3.53;;;1.10;99.90;;;;;;5103183;28;20078;-82
2024/01/21 03:21:06;;;;;;;9.93;4.22;;;1.10;99.90;;;;;;5101362;28;20063;-75
2024/01/21 03:23:33;;;;;;;9.50;4.57;;;1.10;99.90;;;;;;5118947;28;20056;-73
2024/01/21 03:25:59;;;;;;;8.68;3.65;;;1.10;99.90;;;;;;5101517;28;20403;-73
2024/01/21 03:28:25;;;;;;;8.18;3.95;;;1.10;99.90;;;;;;5100674;28;20043;-72
2024/01/21 03:30:51;;;;;;;8.85;4.25;;;1.10;99.90;;;;;;5102187;28;20059;-73
2024/01/21 03:33:17;;;;;;;7.28;3.50;;;1.10;99.90;;;;;;5102757;28;20048;-77
2024/01/21 03:35:42;;;;;;;7.45;3.55;;;1.10;99.90;;;;;;5103215;28;20435;-76
2024/01/21 03:38:08;;;;;;;8.90;4.28;;;1.20;99.90;;;;;;5099407;28;20062;-75
2024/01/21 03:40:34;;;;;;;7.40;3.88;;;1.20;99.90;;;;;;5112707;28;20051;-73
2024/01/21 03:43:00;;;;;;;8.60;3.63;;;1.20;99.90;;;;;;5120664;28;20104;-73
2024/01/21 03:45:25;;;;;;;10.80;4.82;;;1.10;99.90;;;;;;5102518;28;20054;-77
2024/01/21 03:47:51;;;;;;;8.02;3.72;;;1.10;99.90;;;;;;5122018;28;20056;-78
2024/01/21 03:50:19;;;;;;;9.57;4.63;;;1.10;99.90;;;;;;5120070;28;20143;-75
2024/01/21 03:52:46;;;;;;;7.18;3.67;;;1.10;99.90;;;;;;5084667;28;20044;-82
2024/01/21 03:55:12;;;;;;;7.15;2.90;;;1.10;99.90;;;;;;5113416;28;20044;-82
2024/01/21 03:57:38;;;;;;;7.63;3.67;;;1.20;99.90;;;;;;5096477;28;20103;-80
2024/01/21 04:00:08;;;;;;;8.13;3.50;;;1.20;99.90;;;;;;5113880;28;20058;-81
2024/01/21 04:02:33;;;;;;;6.80;3.35;;;1.20;99.90;;;;;;5113323;28;20062;-79
2024/01/21 04:04:59;;;;;;;8.98;3.92;;;1.20;99.90;;;;;;5113102;28;20051;-80
2024/01/21 04:07:24;;;;;;;7.40;3.40;;;1.20;99.90;;;;;;5113945;28;20058;-79
2024/01/21 04:09:50;;;;;;;7.75;3.70;;;1.30;99.90;;;;;;5114288;28;20044;-76
2024/01/21 04:12:16;;;;;;;8.90;3.67;;;1.40;99.90;;;;;;5112998;28;20044;-81
2024/01/21 04:14:41;;;;;;;12.82;4.13;;;1.40;99.90;;;;;;5093753;28;20051;-80
2024/01/21 04:17:07;;;;;;;12.57;3.03;;;1.40;99.90;;;;;;5094138;28;20368;-79
2024/01/21 04:19:33;;;;;;;8.10;3.67;;;1.40;99.90;;;;;;5113451;28;20043;-77
2024/01/21 04:21:59;;;;;;;6.43;2.67;;;1.40;99.90;;;;;;5111944;28;20065;-82
2024/01/21 04:24:24;;;;;;;7.07;3.38;;;1.40;99.90;;;;;;5111660;28;20051;-74
2024/01/21 04:26:50;;;;;;;5.43;2.70;;;1.40;99.90;;;;;;5094664;28;20047;-79
2024/01/21 04:29:16;;;;;;;6.97;3.17;;;1.40;99.90;;;;;;5112557;28;20051;-80
2024/01/21 04:31:43;;;;;;;7.30;3.05;;;1.40;99.90;;;;;;5093580;28;20053;-80
2024/01/21 04:34:09;;;;;;;5.63;2.67;;;1.40;99.90;;;;;;5112669;28;20108;-78
2024/01/21 04:36:35;;;;;;;7.70;2.75;;;1.40;99.90;;;;;;5112470;28;20048;-82
2024/01/21 04:39:01;;;;;;;7.43;3.03;;;1.40;99.90;;;;;;5093851;28;20055;-81
2024/01/21 04:41:27;;;;;;;7.43;3.15;;;1.40;99.90;;;;;;5110390;28;20055;-82
2024/01/21 04:43:52;;;;;;;7.43;3.40;;;1.40;99.90;;;;;;5093338;28;20051;-82
2024/01/21 04:46:18;;;;;;;6.55;2.70;;;1.40;99.90;;;;;;5093381;28;20052;-80
2024/01/21 04:48:44;;;;;;;5.22;2.28;;;1.40;99.90;;;;;;5111447;28;20036;-82
2024/01/21 04:51:10;;;;;;;8.30;2.70;;;1.40;99.90;;;;;;5111762;28;20499;-80
2024/01/21 04:53:39;;;;;;;8.18;2.25;;;1.40;99.90;;;;;;5093952;28;20083;-82
2024/01/21 04:56:06;;;;;;;11.25;3.35;;;1.30;99.90;;;;;;5093457;28;20059;-82
2024/01/21 04:58:32;;;;;;;8.02;2.67;;;1.30;99.90;;;;;;5076360;28;20556;-76
2024/01/21 05:00:58;;;;;;;7.35;2.80;;;1.40;99.90;;;;;;5111499;28;20055;-82
2024/01/21 05:03:24;;;;;;;7.97;2.83;;;1.40;99.90;;;;;;5111466;28;20392;-78
2024/01/21 05:05:49;;;;;;;7.85;3.28;;;1.40;99.90;;;;;;5111522;28;20052;-79
2024/01/21 05:08:15;;;;;;;6.55;2.55;;;1.40;99.90;;;;;;5111941;28;20050;-82
2024/01/21 05:10:41;;;;;;;7.65;3.03;;;1.40;99.90;;;;;;5111735;28;20050;-82
2024/01/21 05:13:07;;;;;;;5.72;2.53;;;1.40;99.90;;;;;;5110248;28;20052;-77
2024/01/21 05:15:33;;;;;;;5.93;2.53;;;1.40;99.90;;;;;;5093049;28;20101;-76
2024/01/21 05:17:59;;;;;;;8.50;3.10;;;1.50;99.90;;;;;;5114932;28;20047;-81
2024/01/21 05:20:24;;;;;;;7.40;2.88;;;1.40;99.90;;;;;;5115081;28;20043;-81
2024/01/21 05:22:50;;;;;;;6.55;2.78;;;1.40;99.90;;;;;;5115510;28;20056;-80
2024/01/21 05:25:17;;;;;;;7.30;3.00;;;1.40;99.90;;;;;;5115513;28;20056;-81
2024/01/21 05:27:43;;;;;;;5.70;2.20;;;1.40;99.90;;;;;;5115406;28;20126;-82
2024/01/21 05:30:09;;;;;;;6.88;3.08;;;1.40;99.90;;;;;;5115202;28;20130;-81
2024/01/21 05:32:34;;;;;;;7.25;2.88;;;1.50;99.90;;;;;;5098503;28;20051;-81
2024/01/21 05:35:00;;;;;;;5.93;2.83;;;1.50;99.90;;;;;;5113956;28;20492;-83
2024/01/21 05:37:26;;;;;;;7.38;3.05;;;1.40;99.90;;;;;;5115089;28;20062;-82
2024/01/21 05:39:51;;;;;;;6.35;2.72;;;1.40;99.90;;;;;;5114550;28;20075;-81
2024/01/21 05:42:17;;;;;;;7.88;3.50;;;1.40;99.90;;;;;;5115100;28;20059;-80
2024/01/21 05:44:43;;;;;;;5.00;2.95;;;1.40;99.90;;;;;;5097057;28;20144;-81
2024/01/21 05:47:08;;;;;;;7.18;3.00;;;1.40;99.90;;;;;;5096659;28;20082;-81
2024/01/21 05:49:34;;;;;;;5.70;3.00;;;1.40;99.90;;;;;;5098097;28;20077;-82
2024/01/21 05:52:00;;;;;;;6.55;2.78;;;1.40;99.90;;;;;;5099128;28;20040;-81
2024/01/21 05:54:26;;;;;;;6.25;2.53;;;1.40;99.90;;;;;;5096167;28;20063;-82
2024/01/21 05:56:52;;;;;;;7.25;2.95;;;1.40;99.90;;;;;;5114865;28;20407;-80
2024/01/21 05:59:19;;;;;;;8.60;3.15;;;1.40;99.90;;;;;;5114646;28;20058;-82
2024/01/21 06:01:49;;;;;;;5.68;2.92;;;1.40;99.90;;;;;;5095794;28;20054;-80
2024/01/21 06:04:16;;;;;;;7.28;3.45;;;1.40;99.90;;;;;;5096176;28;20055;-82
2024/01/21 06:06:42;;;;;;;5.55;2.75;;;1.40;99.90;;;;;;5096385;28;20051;-76
2024/01/21 06:09:08;;;;;;;6.32;2.95;;;1.30;99.90;;;;;;5115069;28;20051;-80
2024/01/21 06:11:33;;;;;;;8.35;3.30;;;1.30;99.90;;;;;;5095621;28;20052;-80
2024/01/21 06:14:00;;;;;;;6.05;2.63;;;1.30;99.90;;;;;;5095784;28;20083;-81
2024/01/21 06:16:25;;;;;;;7.72;3.47;;;1.30;99.90;;;;;;5113816;28;20582;-82
2024/01/21 06:18:51;;;;;;;7.13;3.55;;;1.30;99.90;;;;;;5095689;28;20047;-82
2024/01/21 06:21:17;;;;;;;7.35;2.90;;;1.30;99.90;;;;;;5114793;28;20055;-82
2024/01/21 06:23:44;;;;;;;8.13;3.03;;;1.30;99.90;;;;;;5114069;28;20055;-81
2024/01/21 06:26:20;;;;;;;8.77;2.97;;;1.30;99.90;;;;;;5113641;28;20526;-82
2024/01/21 06:28:50;;;;;;;7.97;3.60;;;1.30;99.90;;;;;;5114107;28;20052;-77
2024/01/21 06:31:16;;;;;;;7.25;3.17;;;1.30;99.90;;;;;;5095548;28;20083;-80
2024/01/21 06:33:42;;;;;;;7.38;2.97;;;1.30;99.90;;;;;;5113957;28;20456;-82
2024/01/21 06:36:08;;;;;;;7.15;3.08;;;1.30;99.90;;;;;;5113688;28;20048;-81
2024/01/21 06:38:34;;;;;;;8.18;3.40;;;1.30;99.90;;;;;;5113807;28;20045;-79
2024/01/21 06:41:00;;;;;;;8.68;3.20;;;1.30;99.90;;;;;;5113385;28;20066;-82
2024/01/21 06:43:26;;;;;;;10.05;3.20;;;1.30;99.90;;;;;;5113635;28;20138;-82
2024/01/21 06:45:52;;;;;;;9.13;3.00;;;1.30;99.90;;;;;;5095829;28;20112;-75
2024/01/21 06:48:17;;;;;;;9.15;3.50;;;1.30;99.90;;;;;;5095627;28;20143;-83
2024/01/21 06:50:48;;;;;;;8.10;3.22;;;1.30;99.90;;;;;;5113815;28;20063;-82
2024/01/21 06:53:16;;;;;;;8.25;3.45;;;1.30;99.90;;;;;;5113261;28;20137;-81
2024/01/21 06:55:45;;;;;;;8.32;2.85;;;1.30;99.90;;;;;;5113701;28;20047;-82
2024/01/21 06:58:11;;;;;;;9.13;3.28;;;1.30;99.90;;;;;;5113653;28;20050;-81
2024/01/21 07:00:37;;;;;;;7.93;2.90;;;1.30;99.90;;;;;;5113301;28;20517;-82
2024/01/21 07:03:03;;;;;;;6.20;2.65;;;1.40;99.90;;;;;;5095374;28;20051;-82
2024/01/21 07:05:29;;;;;;;5.78;3.15;;;1.40;99.90;;;;;;5112633;28;20058;-82
2024/01/21 07:07:55;;;;;;;7.88;3.30;;;1.40;99.90;;;;;;5094888;28;20077;-81
2024/01/21 07:10:20;;;;;;;7.68;3.40;;;1.40;99.90;;;;;;5113093;28;20048;-83
2024/01/21 07:12:46;;;;;;;9.20;2.95;;;1.40;99.90;;;;;;5095095;28;20112;-80
2024/01/21 07:15:15;;;;;;;7.95;3.17;;;1.50;99.90;;;;;;5113404;28;20055;-82
2024/01/21 07:17:42;;;;;;;7.15;3.08;;;1.50;99.90;;;;;;5113108;28;20096;-81
2024/01/21 07:20:11;;;;;;;11.13;4.70;;;1.50;99.90;;;;;;5112809;28;20047;-82
2024/01/21 07:22:37;;;;;;;8.00;3.53;;;1.60;99.90;;;;;;5095166;28;20055;-81
2024/01/21 07:25:04;;;;;;;8.70;2.97;;;1.60;99.90;;;;;;5094252;28;20051;-82
2024/01/21 07:27:29;;;;;;;10.32;3.88;;;1.60;99.90;;;;;;5113022;28;20051;-78
2024/01/21 07:29:55;;;;;;;9.05;3.80;;;1.60;99.90;;;;;;5112747;28;20058;-81
2024/01/21 07:32:21;;;;;;;6.38;3.33;;;1.60;99.90;;;;;;5112375;28;20407;-82
2024/01/21 07:34:46;;;;;;;8.40;3.53;;;1.60;99.90;;;;;;5094204;28;20047;-83
2024/01/21 07:37:12;;;;;;;6.78;2.88;;;1.60;99.90;;;;;;5094064;28;20052;-80
2024/01/21 07:39:38;;;;;;;8.70;3.17;;;1.70;99.90;;;;;;5111666;28;20052;-81
2024/01/21 07:42:04;;;;;;;7.88;3.03;;;1.60;99.90;;;;;;5112905;28;20058;-81
2024/01/21 07:44:29;;;;;;;8.18;3.95;;;1.60;99.90;;;;;;5093779;28;20398;-75
2024/01/21 07:46:55;;;;;;;7.22;2.92;;;1.70;99.90;;;;;;5112119;28;20043;-82
2024/01/21 07:49:21;;;;;;;10.05;3.38;;;1.70;99.90;;;;;;5112462;28;20043;-80
2024/01/21 07:51:46;;;;;;;8.52;3.45;;;1.70;99.90;;;;;;5112281;28;20047;-74
2024/01/21 07:54:13;;;;;;;8.57;3.78;;;1.80;99.90;;;;;;5094025;28;20119;-75
2024/01/21 07:56:38;;;;;;;7.78;4.22;;;1.80;99.90;;;;;;5112507;28;20091;-82
2024/01/21 07:59:04;;;;;;;8.38;4.20;;;1.80;99.90;;;;;;5112358;28;20051;-81
2024/01/21 08:01:30;;;;;;;9.70;4.35;;;1.80;99.90;;;;;;5094241;28;20403;-82
2024/01/21 08:03:55;;;;;;;10.52;4.03;;;1.80;99.90;;;;;;5110635;28;20051;-83
2024/01/21 08:06:21;;;;;;;10.15;4.78;;;1.80;99.90;;;;;;5111892;28;20087;-81
2024/01/21 08:08:47;;;;;;;9.20;3.88;;;1.90;99.90;;;;;;5093870;28;20039;-76
2024/01/21 08:11:13;;;;;;;10.15;4.20;;;1.90;99.90;;;;;;5112361;28;20044;-79
2024/01/21 08:13:39;;;;;;;8.98;4.15;;;1.90;99.90;;;;;;5093589;28;20120;-80
2024/01/21 08:16:04;;;;;;;7.82;3.88;;;1.90;99.90;;;;;;5112287;28;20395;-81
2024/01/21 08:18:30;;;;;;;10.32;4.20;;;1.90;99.90;;;;;;5111974;28;20039;-82
2024/01/21 08:20:56;;;;;;;9.52;3.97;;;1.90;99.90;;;;;;5111906;28;20077;-79
2024/01/21 08:23:21;;;;;;;8.88;4.05;;;1.80;99.90;;;;;;5110651;28;20050;-77
2024/01/21 08:25:47;;;;;;;9.48;4.10;;;1.80;99.90;;;;;;5111634;28;20051;-72
2024/01/21 08:28:13;;;;;;;7.38;3.58;;;1.80;99.90;;;;;;5111953;28;20052;-73
2024/01/21 08:30:39;;;;;;;10.68;4.25;;;1.80;99.90;;;;;;5093166;28;20403;-77
2024/01/21 08:33:05;;;;;;;7.70;3.42;;;1.80;99.90;;;;;;5093420;28;20051;-75
2024/01/21 08:35:30;;;;;;;8.95;4.22;;;1.80;99.90;;;;;;5076478;28;20066;-76
2024/01/21 08:37:56;;;;;;;8.00;3.63;;;1.80;99.90;;;;;;5111789;28;20541;-76
2024/01/21 08:40:22;;;;;;;11.35;4.18;;;1.70;99.90;;;;;;5111164;28;20516;-79
2024/01/21 08:42:47;;;;;;;11.20;4.07;;;1.50;99.90;;;;;;5111626;28;20047;-77
2024/01/21 08:45:13;;;;;;;11.07;4.72;;;1.60;99.90;;;;;;5111527;28;20105;-77
2024/01/21 08:47:39;;;;;;;10.93;5.20;;;1.60;99.90;;;;;;5111288;28;20051;-80
2024/01/21 08:50:05;;;;;;;12.02;4.97;;;1.60;99.90;;;;;;5076571;28;20146;-75
2024/01/21 08:52:30;;;;;;;7.95;3.97;;;1.60;99.90;;;;;;5114078;28;20047;-76
2024/01/21 08:54:56;;;;;;;9.95;4.38;;;1.60;99.90;;;;;;5115751;28;20122;-81
2024/01/21 08:57:22;;;;;;;9.60;4.10;;;1.60;99.90;;;;;;5116034;28;20035;-75
2024/01/21 08:59:51;;;;;;;10.70;4.05;;;1.60;99.90;;;;;;5116205;28;20491;-74
2024/01/21 09:02:18;;;;;;;10.15;4.32;;;1.70;99.90;;;;;;5584683;22;20075;-81
2024/01/21 09:04:44;;;;;;;9.27;4.53;;;1.70;99.90;;;;;;5097088;28;20079;-83
2024/01/21 09:07:10;;;;;;;10.98;4.53;;;1.70;99.90;;;;;;5097346;28;20090;-84
2024/01/21 09:09:35;;;;;;;9.85;4.97;;;1.80;99.90;;;;;;5097270;28;20059;-82
2024/01/21 09:12:01;;;;;;;12.43;5.38;;;1.80;99.90;;;;;;5116007;28;20677;-83
2024/01/21 09:14:27;;;;;;;8.80;4.50;;;1.80;99.90;;;;;;5115853;28;20048;-81
2024/01/21 09:16:53;;;;;;;9.45;4.22;;;1.90;99.90;;;;;;5097012;28;20449;-79
2024/01/21 09:19:19;;;;;;;9.85;4.57;;;1.90;99.90;;;;;;5097155;28;20052;-78
2024/01/21 09:21:44;;;;;;;8.95;4.72;;;1.90;99.90;;;;;;5115798;28;20040;-75
2024/01/21 09:24:11;;;;;;;10.23;5.32;;;2.00;99.90;;;;;;5115219;28;20101;-77
2024/01/21 09:26:37;;;;;;;10.57;4.78;;;2.00;99.90;;;;;;5115094;28;20539;-78
2024/01/21 09:29:03;;;;;;;9.10;4.35;;;2.00;99.90;;;;;;5096882;28;20051;-82
2024/01/21 09:31:29;;;;;;;11.18;4.50;;;2.00;99.90;;;;;;5079922;28;20062;-77
2024/01/21 09:33:56;;;;;;;11.82;5.07;;;2.10;99.90;;;;;;5115042;28;20062;-78
2024/01/21 09:36:22;;;;;;;10.48;4.75;;;2.20;99.90;;;;;;5114749;28;20055;-79
2024/01/21 09:38:51;;;;;;;10.90;5.00;;;2.30;99.90;;;;;;5114661;28;20092;-74
2024/01/21 09:41:19;;;;;;;10.07;4.40;;;2.30;99.90;;;;;;5096899;28;20054;-75
2024/01/21 09:43:45;;;;;;;10.07;4.93;;;2.40;99.90;;;;;;5096777;28;20505;-75
2024/01/21 09:46:14;;;;;;;9.90;4.63;;;2.40;99.90;;;;;;5114877;28;20083;-75
2024/01/21 09:48:40;;;;;;;11.55;4.80;;;2.50;99.90;;;;;;5096696;28;20048;-74
2024/01/21 09:51:06;;;;;;;12.02;5.05;;;2.50;99.90;;;;;;5096905;28;20066;-76
2024/01/21 09:53:32;;;;;;;12.10;5.25;;;2.60;99.90;;;;;;5114627;28;20052;-72
2024/01/21 09:56:07;;;;;;;10.32;4.40;;;2.60;99.90;;;;;;5114884;28;20047;-78
2024/01/21 09:58:45;;;;;;;9.60;4.38;;;2.70;99.90;;;;;;5096807;28;20395;-73
2024/01/21 10:01:12;;;;;;;13.80;5.68;;;2.70;99.90;;;;;;5096193;28;20108;-82
2024/01/21 10:03:37;;;;;;;8.18;4.35;;;2.80;99.90;;;;;;5094988;28;20048;-77
2024/01/21 10:06:04;;;;;;;9.35;5.25;;;2.90;99.90;;;;;;5096409;28;20052;-73
2024/01/21 10:08:31;;;;;;;8.55;4.50;;;3.00;99.90;;;;;;5114409;28;20059;-75
2024/01/21 10:11:02;;;;;;;9.57;4.85;;;2.90;99.90;;;;;;5079130;28;20098;-77
2024/01/21 10:13:30;;;;;;;11.35;5.32;;;3.00;99.90;;;;;;5114627;28;20116;-73
2024/01/21 10:15:57;;;;;;;10.93;4.45;;;3.00;99.90;;;;;;5114652;28;20050;-76
2024/01/21 10:18:23;;;;;;;13.40;5.93;;;3.00;99.90;;;;;;5114431;28;20150;-76
2024/01/21 10:20:48;;;;;;;11.13;6.10;;;3.00;99.90;;;;;;5114060;28;20135;-81
2024/01/21 10:23:14;;;;;;;13.90;6.20;;;3.10;99.90;;;;;;5095670;28;20043;-73
2024/01/21 10:25:43;;;;;;;16.50;5.85;;;3.10;99.90;;;;;;5113691;28;20046;-73
2024/01/21 10:28:12;;;;;;;12.82;5.88;;;3.10;99.90;;;;;;5114250;28;20079;-76
2024/01/21 10:30:38;;;;;;;10.48;5.55;;;3.10;99.90;;;;;;5096422;28;20372;-77
2024/01/21 10:33:06;;;;;;;12.15;6.03;;;3.10;99.90;;;;;;5095889;28;20054;-77
2024/01/21 10:35:31;;;;;;;16.38;5.65;;;3.10;99.90;;;;;;5095455;28;20433;-77
2024/01/21 10:37:58;;;;;;;12.52;6.03;;;3.10;99.90;;;;;;5113988;28;20088;-78
2024/01/21 10:40:25;;;;;;;15.32;5.78;;;3.20;99.90;;;;;;5114052;28;20131;-79
2024/01/21 10:42:55;;;;;;;15.13;7.07;;;3.20;99.90;;;;;;5113403;28;20507;-77
2024/01/21 10:45:25;;;;;;;17.88;6.70;;;3.30;99.90;;;;;;5114138;28;20051;-80
2024/01/21 10:47:53;;;;;;;15.65;7.28;;;3.40;99.90;;;;;;5095395;28;20087;-77
2024/01/21 10:50:22;;;;;;;16.58;7.40;;;3.40;99.90;;;;;;5113924;28;20487;-79
2024/01/21 10:52:50;;;;;;;12.85;6.15;;;3.40;99.90;;;;;;5114184;28;20071;-81
2024/01/21 10:55:16;;;;;;;16.45;7.13;;;3.40;99.90;;;;;;5114088;28;20123;-76
2024/01/21 10:57:43;;;;;;;17.67;6.60;;;3.30;99.90;;;;;;5095278;28;20048;-79
2024/01/21 11:00:09;;;;;;;14.85;7.50;;;3.40;99.90;;;;;;5114112;28;20067;-79
2024/01/21 11:02:36;;;;;;;15.57;6.97;;;3.30;99.90;;;;;;5113151;28;20515;-81
2024/01/21 11:05:01;;;;;;;16.27;6.85;;;3.30;99.90;;;;;;5113672;28;20510;-78
2024/01/21 11:07:29;;;;;;;15.65;7.57;;;3.30;99.90;;;;;;5094995;28;20146;-79
2024/01/21 11:09:57;;;;;;;18.58;7.13;;;3.30;99.90;;;;;;5094958;28;20047;-79
2024/01/21 11:12:23;;;;;;;14.52;7.07;;;3.40;99.90;;;;;;5113169;28;20088;-75
2024/01/21 11:14:49;;;;;;;18.52;7.18;;;3.40;99.90;;;;;;5112197;28;20407;-76
2024/01/21 11:17:19;;;;;;;17.05;7.43;;;3.40;99.90;;;;;;5094820;28;20043;-75
2024/01/21 11:19:44;;;;;;;15.13;6.88;;;3.40;99.90;;;;;;5113080;28;20056;-74
2024/01/21 11:22:11;;;;;;;16.67;7.90;;;3.40;99.90;;;;;;5113055;28;20067;-80
2024/01/21 11:24:37;;;;;;;14.90;6.80;;;3.50;99.90;;;;;;5113085;28;20047;-73
2024/01/21 11:27:03;;;;;;;15.38;7.05;;;3.50;99.90;;;;;;5113142;28;20043;-80
2024/01/21 11:29:31;;;;;;;23.95;7.63;;;3.50;99.90;;;;;;5094864;28;20444;-76
2024/01/21 11:32:02;;;;;;;17.17;7.90;;;3.50;99.90;;;;;;5113006;28;20047;-79
2024/01/21 11:34:38;;;;;;;15.88;6.60;;;3.50;99.90;;;;;;5112882;28;20085;-76
2024/01/21 11:37:05;;;;;;;20.15;7.50;;;3.50;99.90;;;;;;5094324;28;20078;-80
2024/01/21 11:39:31;;;;;;;15.20;7.38;;;3.50;99.90;;;;;;5112735;28;20060;-78
2024/01/21 11:41:56;;;;;;;19.10;7.82;;;3.50;99.90;;;;;;5094467;28;20134;-75
2024/01/21 11:44:23;;;;;;;15.07;7.43;;;3.60;99.90;;;;;;5112492;28;20483;-76
2024/01/21 11:46:49;;;;;;;16.65;8.40;;;3.60;99.90;;;;;;5112671;28;20055;-77
2024/01/21 11:49:16;;;;;;;14.10;6.47;;;3.60;99.90;;;;;;5112337;28;20071;-77
2024/01/21 11:51:43;;;;;;;20.08;7.45;;;3.60;99.90;;;;;;5112758;28;20054;-79
2024/01/21 11:54:10;;;;;;;21.77;8.10;;;3.60;99.90;;;;;;5094856;28;20052;-75
2024/01/21 11:56:36;;;;;;;22.73;8.25;;;3.60;99.90;;;;;;5112315;28;20044;-80
2024/01/21 11:59:08;;;;;;;17.63;7.50;;;3.60;99.90;;;;;;5112328;28;20593;-82
2024/01/21 12:01:35;;;;;;;19.15;8.52;;;3.60;99.90;;;;;;5112611;28;20047;-76
2024/01/21 12:04:02;;;;;;;17.50;7.00;;;3.60;99.90;;;;;;5111998;28;20051;-76
2024/01/21 12:06:31;;;;;;;17.70;8.20;;;3.60;99.90;;;;;;5112303;28;20055;-79
2024/01/21 12:08:58;;;;;;;23.20;9.95;;;3.60;99.90;;;;;;5112038;28;20048;-77
2024/01/21 12:11:24;;;;;;;21.50;9.05;;;3.60;99.90;;;;;;5093652;28;20043;-78
2024/01/21 12:13:50;;;;;;;18.77;8.45;;;3.70;99.90;;;;;;5112350;28;20103;-77
2024/01/21 12:16:17;;;;;;;17.35;8.65;;;3.70;99.90;;;;;;5112155;28;20504;-77
2024/01/21 12:18:44;;;;;;;25.20;9.63;;;3.70;99.90;;;;;;5077161;28;20078;-82
2024/01/21 12:21:13;;;;;;;19.25;10.18;;;3.70;99.90;;;;;;5093691;28;20487;-80
2024/01/21 12:23:48;;;;;;;17.92;9.20;;;3.80;99.90;;;;;;5111811;28;20054;-81
2024/01/21 12:26:14;;;;;;;;;;;3.70;99.90;;;;;;5112217;28;20492;-78
2024/01/21 12:28:56;;;;;;;24.83;10.88;;;3.70;99.90;;;;;;5093471;28;20348;-83
2024/01/21 12:31:39;;;;;;;24.48;8.60;;;3.80;99.90;;;;;;5093831;28;20403;-80
2024/01/21 12:34:06;;;;;;;27.77;10.43;;;3.80;99.90;;;;;;5112054;28;20391;-79
2024/01/21 12:36:34;;;;;;;21.65;9.95;;;3.80;99.90;;;;;;5111762;28;20055;-78
2024/01/21 12:39:00;;;;;;;20.92;9.40;;;3.90;99.90;;;;;;5094113;28;20087;-80
2024/01/21 12:41:27;;;;;;;21.67;10.88;;;3.90;99.90;;;;;;5093525;28;20062;-80
2024/01/21 12:43:52;;;;;;;26.05;9.15;;;3.90;99.90;;;;;;5093589;28;20051;-77
2024/01/21 12:46:20;;;;;;;27.75;10.18;;;3.90;99.90;;;;;;5111914;28;20116;-79
2024/01/21 12:48:46;;;;;;;20.90;9.93;;;3.90;99.90;;;;;;5111682;28;20050;-80